sensor_id;sensor_type;location;lat;lon;timestamp;pressure;altitude;pressure_sealevel;temperature;humidity
60920;BME280;59039;52.108;19.942;2023-03-04T00:00:52;100480.20;;;0.77;79.29
60920;BME280;59039;52.108;19.942;2023-03-04T00:03:24;100480.03;;;0.77;79.22
60920;BME280;59039;52.108;19.942;2023-03-04T00:06:10;100479.66;;;0.74;79.37
60920;BME280;59039;52.108;19.942;2023-03-04T00:08:35;100481.45;;;0.71;79.64
60920;BME280;59039;52.108;19.942;2023-03-04T00:11:10;100479.73;;;0.70;79.49
60920;BME280;59039;52.108;19.942;2023-03-04T00:13:46;100480.33;;;0.69;79.82
60920;BME280;59039;52.108;19.942;2023-03-04T00:16:14;100481.70;;;0.67;79.84
60920;BME280;59039;52.108;19.942;2023-03-04T00:18:40;100476.70;;;0.67;79.95
60920;BME280;59039;52.108;19.942;2023-03-04T00:21:05;100480.09;;;0.67;79.69
60920;BME280;59039;52.108;19.942;2023-03-04T00:23:44;100474.09;;;0.66;79.86
60920;BME280;59039;52.108;19.942;2023-03-04T00:26:12;100473.38;;;0.62;80.09
60920;BME280;59039;52.108;19.942;2023-03-04T00:28:42;100471.30;;;0.58;80.46
60920;BME280;59039;52.108;19.942;2023-03-04T00:31:08;100467.66;;;0.57;80.18
60920;BME280;59039;52.108;19.942;2023-03-04T00:33:37;100461.96;;;0.53;80.34
60920;BME280;59039;52.108;19.942;2023-03-04T00:36:22;100462.73;;;0.53;79.77
60920;BME280;59039;52.108;19.942;2023-03-04T00:38:47;100457.65;;;0.48;80.51
60920;BME280;59039;52.108;19.942;2023-03-04T00:41:15;100449.25;;;0.46;80.17
60920;BME280;59039;52.108;19.942;2023-03-04T00:43:40;100441.75;;;0.46;79.80
60920;BME280;59039;52.108;19.942;2023-03-04T00:46:06;100434.69;;;0.45;79.87
60920;BME280;59039;52.108;19.942;2023-03-04T00:48:43;100426.64;;;0.45;79.87
60920;BME280;59039;52.108;19.942;2023-03-04T00:51:11;100416.14;;;0.45;79.83
60920;BME280;59039;52.108;19.942;2023-03-04T00:53:37;100407.90;;;0.45;79.61
60920;BME280;59039;52.108;19.942;2023-03-04T00:56:02;100400.07;;;0.42;79.68
60920;BME280;59039;52.108;19.942;2023-03-04T00:58:28;100386.83;;;0.40;79.75
60920;BME280;59039;52.108;19.942;2023-03-04T01:00:53;100380.50;;;0.38;79.70
60920;BME280;59039;52.108;19.942;2023-03-04T01:06:05;100372.67;;;0.35;80.34
60920;BME280;59039;52.108;19.942;2023-03-04T01:08:33;100369.21;;;0.36;80.33
60920;BME280;59039;52.108;19.942;2023-03-04T01:10:58;100373.48;;;0.39;80.26
60920;BME280;59039;52.108;19.942;2023-03-04T01:13:24;100370.52;;;0.39;80.16
60920;BME280;59039;52.108;19.942;2023-03-04T01:15:49;100365.32;;;0.39;80.42
60920;BME280;59039;52.108;19.942;2023-03-04T01:18:20;100358.77;;;0.38;80.61
60920;BME280;59039;52.108;19.942;2023-03-04T01:20:45;100355.30;;;0.37;80.47
60920;BME280;59039;52.108;19.942;2023-03-04T01:23:13;100351.17;;;0.37;80.41
60920;BME280;59039;52.108;19.942;2023-03-04T01:25:44;100346.14;;;0.38;80.32
60920;BME280;59039;52.108;19.942;2023-03-04T01:28:12;100343.61;;;0.38;80.64
60920;BME280;59039;52.108;19.942;2023-03-04T01:30:40;100340.76;;;0.38;80.84
60920;BME280;59039;52.108;19.942;2023-03-04T01:33:06;100341.03;;;0.40;80.57
60920;BME280;59039;52.108;19.942;2023-03-04T01:35:31;100338.70;;;0.40;81.12
60920;BME280;59039;52.108;19.942;2023-03-04T01:37:57;100335.31;;;0.43;80.92
60920;BME280;59039;52.108;19.942;2023-03-04T01:40:23;100324.91;;;0.44;80.76
60920;BME280;59039;52.108;19.942;2023-03-04T01:42:51;100320.67;;;0.44;80.90
60920;BME280;59039;52.108;19.942;2023-03-04T01:45:17;100315.75;;;0.45;81.03
60920;BME280;59039;52.108;19.942;2023-03-04T01:47:46;100307.21;;;0.48;81.10
60920;BME280;59039;52.108;19.942;2023-03-04T01:50:19;100298.99;;;0.51;81.01
60920;BME280;59039;52.108;19.942;2023-03-04T01:52:45;100278.88;;;0.54;80.82
60920;BME280;59039;52.108;19.942;2023-03-04T01:55:15;100264.88;;;0.55;80.82
60920;BME280;59039;52.108;19.942;2023-03-04T01:57:41;100253.48;;;0.58;80.76
60920;BME280;59039;52.108;19.942;2023-03-04T02:02:40;100248.30;;;0.61;81.06
60920;BME280;59039;52.108;19.942;2023-03-04T02:05:06;100243.73;;;0.62;80.95
60920;BME280;59039;52.108;19.942;2023-03-04T02:07:31;100235.77;;;0.65;80.73
60920;BME280;59039;52.108;19.942;2023-03-04T02:09:57;100221.08;;;0.66;80.92
60920;BME280;59039;52.108;19.942;2023-03-04T02:12:22;100209.94;;;0.67;80.82
60920;BME280;59039;52.108;19.942;2023-03-04T02:14:50;100200.30;;;0.70;80.70
60920;BME280;59039;52.108;19.942;2023-03-04T02:17:22;100194.02;;;0.70;81.03
60920;BME280;59039;52.108;19.942;2023-03-04T02:22:18;100186.74;;;0.73;80.70
60920;BME280;59039;52.108;19.942;2023-03-04T02:24:50;100190.38;;;0.74;80.82
60920;BME280;59039;52.108;19.942;2023-03-04T02:27:17;100182.64;;;0.75;81.09
60920;BME280;59039;52.108;19.942;2023-03-04T02:29:52;100178.20;;;0.78;80.82
60920;BME280;59039;52.108;19.942;2023-03-04T02:32:20;100169.13;;;0.80;80.71
60920;BME280;59039;52.108;19.942;2023-03-04T02:34:48;100166.04;;;0.81;80.70
60920;BME280;59039;52.108;19.942;2023-03-04T02:37:17;100152.11;;;0.81;80.80
60920;BME280;59039;52.108;19.942;2023-03-04T02:39:52;100141.80;;;0.84;80.76
60920;BME280;59039;52.108;19.942;2023-03-04T02:42:19;100129.64;;;0.85;80.93
60920;BME280;59039;52.108;19.942;2023-03-04T02:44:46;100123.91;;;0.87;80.90
60920;BME280;59039;52.108;19.942;2023-03-04T02:47:14;100127.18;;;0.90;80.73
60920;BME280;59039;52.108;19.942;2023-03-04T02:49:44;100138.32;;;0.91;80.94
60920;BME280;59039;52.108;19.942;2023-03-04T02:52:18;100143.73;;;0.93;80.69
60920;BME280;59039;52.108;19.942;2023-03-04T02:54:43;100147.88;;;0.95;80.71
60920;BME280;59039;52.108;19.942;2023-03-04T02:57:39;100154.20;;;0.96;80.77
60920;BME280;59039;52.108;19.942;2023-03-04T03:00:09;100155.85;;;0.98;80.78
60920;BME280;59039;52.108;19.942;2023-03-04T03:02:55;100166.14;;;1.02;80.55
60920;BME280;59039;52.108;19.942;2023-03-04T03:05:23;100167.50;;;1.03;80.53
60920;BME280;59039;52.108;19.942;2023-03-04T03:07:52;100172.23;;;1.04;80.46
60920;BME280;59039;52.108;19.942;2023-03-04T03:10:23;100175.82;;;1.07;80.38
60920;BME280;59039;52.108;19.942;2023-03-04T03:12:53;100176.37;;;1.09;80.42
60920;BME280;59039;52.108;19.942;2023-03-04T03:15:21;100176.02;;;1.12;80.25
60920;BME280;59039;52.108;19.942;2023-03-04T03:17:52;100180.27;;;1.15;80.16
60920;BME280;59039;52.108;19.942;2023-03-04T03:20:37;100180.79;;;1.18;80.11
60920;BME280;59039;52.108;19.942;2023-03-04T03:23:08;100181.99;;;1.18;80.07
60920;BME280;59039;52.108;19.942;2023-03-04T03:25:33;100177.64;;;1.20;80.05
60920;BME280;59039;52.108;19.942;2023-03-04T03:28:01;100176.02;;;1.23;80.01
60920;BME280;59039;52.108;19.942;2023-03-04T03:30:27;100175.70;;;1.22;79.82
60920;BME280;59039;52.108;19.942;2023-03-04T03:32:53;100174.77;;;1.25;79.91
60920;BME280;59039;52.108;19.942;2023-03-04T03:35:21;100171.10;;;1.27;79.87
60920;BME280;59039;52.108;19.942;2023-03-04T03:38:01;100170.07;;;1.29;79.78
60920;BME280;59039;52.108;19.942;2023-03-04T03:40:27;100171.62;;;1.30;79.58
60920;BME280;59039;52.108;19.942;2023-03-04T03:43:13;100167.01;;;1.32;79.69
60920;BME280;59039;52.108;19.942;2023-03-04T03:45:38;100163.94;;;1.33;79.69
60920;BME280;59039;52.108;19.942;2023-03-04T03:48:04;100166.73;;;1.33;79.47
60920;BME280;59039;52.108;19.942;2023-03-04T03:50:32;100170.17;;;1.35;79.57
60920;BME280;59039;52.108;19.942;2023-03-04T03:53:08;100164.20;;;1.37;79.46
60920;BME280;59039;52.108;19.942;2023-03-04T03:55:34;100162.91;;;1.37;79.48
60920;BME280;59039;52.108;19.942;2023-03-04T03:57:59;100161.48;;;1.37;79.38
60920;BME280;59039;52.108;19.942;2023-03-04T04:00:29;100162.14;;;1.38;79.47
60920;BME280;59039;52.108;19.942;2023-03-04T04:03:04;100162.25;;;1.39;79.43
60920;BME280;59039;52.108;19.942;2023-03-04T04:05:30;100160.66;;;1.41;79.46
60920;BME280;59039;52.108;19.942;2023-03-04T04:07:55;100163.95;;;1.40;79.19
60920;BME280;59039;52.108;19.942;2023-03-04T04:10:30;100162.70;;;1.41;79.31
60920;BME280;59039;52.108;19.942;2023-03-04T04:12:56;100161.84;;;1.40;79.25
60920;BME280;59039;52.108;19.942;2023-03-04T04:15:21;100158.64;;;1.40;79.20
60920;BME280;59039;52.108;19.942;2023-03-04T04:17:55;100157.95;;;1.39;79.14
60920;BME280;59039;52.108;19.942;2023-03-04T04:20:41;100156.75;;;1.38;79.27
60920;BME280;59039;52.108;19.942;2023-03-04T04:23:06;100155.81;;;1.39;79.25
60920;BME280;59039;52.108;19.942;2023-03-04T04:25:31;100155.14;;;1.39;79.29
60920;BME280;59039;52.108;19.942;2023-03-04T04:28:00;100150.11;;;1.39;79.25
60920;BME280;59039;52.108;19.942;2023-03-04T04:30:28;100149.16;;;1.40;79.28
60920;BME280;59039;52.108;19.942;2023-03-04T04:32:56;100147.59;;;1.42;79.21
60920;BME280;59039;52.108;19.942;2023-03-04T04:35:25;100143.44;;;1.43;79.09
60920;BME280;59039;52.108;19.942;2023-03-04T04:37:50;100141.77;;;1.44;79.17
60920;BME280;59039;52.108;19.942;2023-03-04T04:40:16;100146.29;;;1.45;79.15
60920;BME280;59039;52.108;19.942;2023-03-04T04:42:48;100141.04;;;1.47;79.09
60920;BME280;59039;52.108;19.942;2023-03-04T04:45:14;100139.00;;;1.48;79.15
60920;BME280;59039;52.108;19.942;2023-03-04T04:47:39;100139.33;;;1.45;78.92
60920;BME280;59039;52.108;19.942;2023-03-04T04:50:05;100133.67;;;1.47;78.96
60920;BME280;59039;52.108;19.942;2023-03-04T04:52:31;100132.39;;;1.48;78.94
60920;BME280;59039;52.108;19.942;2023-03-04T04:54:56;100130.52;;;1.49;78.92
60920;BME280;59039;52.108;19.942;2023-03-04T04:57:22;100132.06;;;1.50;78.98
60920;BME280;59039;52.108;19.942;2023-03-04T04:59:55;100128.67;;;1.52;78.85
60920;BME280;59039;52.108;19.942;2023-03-04T05:02:35;100127.83;;;1.55;78.89
60920;BME280;59039;52.108;19.942;2023-03-04T05:05:04;100126.51;;;1.55;78.71
60920;BME280;59039;52.108;19.942;2023-03-04T05:07:30;100124.45;;;1.54;78.72
60920;BME280;59039;52.108;19.942;2023-03-04T05:09:56;100119.11;;;1.54;78.72
60920;BME280;59039;52.108;19.942;2023-03-04T05:12:22;100112.58;;;1.56;78.72
60920;BME280;59039;52.108;19.942;2023-03-04T05:15:08;100115.88;;;1.57;78.57
60920;BME280;59039;52.108;19.942;2023-03-04T05:17:36;100120.52;;;1.57;78.48
60920;BME280;59039;52.108;19.942;2023-03-04T05:20:04;100117.83;;;1.57;78.50
60920;BME280;59039;52.108;19.942;2023-03-04T05:22:30;100117.67;;;1.59;78.56
60920;BME280;59039;52.108;19.942;2023-03-04T05:24:58;100114.50;;;1.59;78.36
60920;BME280;59039;52.108;19.942;2023-03-04T05:27:26;100115.35;;;1.60;78.34
60920;BME280;59039;52.108;19.942;2023-03-04T05:29:52;100116.42;;;1.59;78.30
60920;BME280;59039;52.108;19.942;2023-03-04T05:32:17;100118.70;;;1.60;78.43
60920;BME280;59039;52.108;19.942;2023-03-04T05:34:43;100122.98;;;1.60;78.27
60920;BME280;59039;52.108;19.942;2023-03-04T05:37:08;100119.92;;;1.60;78.29
60920;BME280;59039;52.108;19.942;2023-03-04T05:39:33;100118.70;;;1.62;78.47
60920;BME280;59039;52.108;19.942;2023-03-04T05:41:59;100125.13;;;1.62;78.31
60920;BME280;59039;52.108;19.942;2023-03-04T05:44:24;100118.77;;;1.62;78.46
60920;BME280;59039;52.108;19.942;2023-03-04T05:46:50;100121.39;;;1.63;78.34
60920;BME280;59039;52.108;19.942;2023-03-04T05:49:15;100119.67;;;1.62;78.31
60920;BME280;59039;52.108;19.942;2023-03-04T05:51:41;100114.49;;;1.61;78.16
60920;BME280;59039;52.108;19.942;2023-03-04T05:54:27;100111.94;;;1.62;78.14
60920;BME280;59039;52.108;19.942;2023-03-04T05:56:55;100109.71;;;1.64;78.18
60920;BME280;59039;52.108;19.942;2023-03-04T05:59:23;100108.75;;;1.64;78.20
60920;BME280;59039;52.108;19.942;2023-03-04T06:01:49;100106.77;;;1.67;78.20
60920;BME280;59039;52.108;19.942;2023-03-04T06:04:15;100110.88;;;1.67;78.21
60920;BME280;59039;52.108;19.942;2023-03-04T06:06:50;100107.88;;;1.66;78.19
60920;BME280;59039;52.108;19.942;2023-03-04T06:09:21;100100.09;;;1.66;78.15
60920;BME280;59039;52.108;19.942;2023-03-04T06:11:49;100096.85;;;1.66;77.89
60920;BME280;59039;52.108;19.942;2023-03-04T06:14:17;100100.20;;;1.67;78.08
60920;BME280;59039;52.108;19.942;2023-03-04T06:16:42;100099.42;;;1.68;78.05
60920;BME280;59039;52.108;19.942;2023-03-04T06:19:08;100096.98;;;1.70;78.06
60920;BME280;59039;52.108;19.942;2023-03-04T06:21:36;100101.55;;;1.70;78.09
60920;BME280;59039;52.108;19.942;2023-03-04T06:24:10;100104.59;;;1.71;78.08
60920;BME280;59039;52.108;19.942;2023-03-04T06:26:36;100109.89;;;1.72;78.02
60920;BME280;59039;52.108;19.942;2023-03-04T06:29:07;100106.90;;;1.71;77.94
60920;BME280;59039;52.108;19.942;2023-03-04T06:31:32;100107.20;;;1.72;78.00
60920;BME280;59039;52.108;19.942;2023-03-04T06:33:58;100106.83;;;1.72;78.14
60920;BME280;59039;52.108;19.942;2023-03-04T06:36:23;100103.44;;;1.72;77.91
60920;BME280;59039;52.108;19.942;2023-03-04T06:38:49;100102.67;;;1.73;77.80
60920;BME280;59039;52.108;19.942;2023-03-04T06:41:14;100104.45;;;1.73;77.86
60920;BME280;59039;52.108;19.942;2023-03-04T06:43:40;100102.08;;;1.74;77.96
60920;BME280;59039;52.108;19.942;2023-03-04T06:46:06;100100.72;;;1.75;78.00
60920;BME280;59039;52.108;19.942;2023-03-04T06:48:32;100102.63;;;1.76;77.95
60920;BME280;59039;52.108;19.942;2023-03-04T06:50:57;100110.05;;;1.74;77.82
60920;BME280;59039;52.108;19.942;2023-03-04T06:53:23;100113.77;;;1.75;77.84
60920;BME280;59039;52.108;19.942;2023-03-04T06:55:48;100115.16;;;1.75;77.71
60920;BME280;59039;52.108;19.942;2023-03-04T06:58:14;100107.11;;;1.76;77.84
60920;BME280;59039;52.108;19.942;2023-03-04T07:00:43;100106.25;;;1.75;77.72
60920;BME280;59039;52.108;19.942;2023-03-04T07:03:11;100102.09;;;1.76;77.60
60920;BME280;59039;52.108;19.942;2023-03-04T07:05:39;100107.59;;;1.74;77.43
60920;BME280;59039;52.108;19.942;2023-03-04T07:10:49;100111.48;;;1.66;77.44
60920;BME280;59039;52.108;19.942;2023-03-04T07:13:15;100114.66;;;1.67;77.50
60920;BME280;59039;52.108;19.942;2023-03-04T07:15:40;100119.68;;;1.66;77.60
60920;BME280;59039;52.108;19.942;2023-03-04T07:18:08;100114.38;;;1.68;77.65
60920;BME280;59039;52.108;19.942;2023-03-04T07:20:36;100110.31;;;1.71;77.74
60920;BME280;59039;52.108;19.942;2023-03-04T07:23:02;100109.78;;;1.73;77.78
60920;BME280;59039;52.108;19.942;2023-03-04T07:25:27;100101.73;;;1.73;77.59
60920;BME280;59039;52.108;19.942;2023-03-04T07:27:53;100097.23;;;1.74;77.47
60920;BME280;59039;52.108;19.942;2023-03-04T07:30:21;100095.48;;;1.76;77.47
60920;BME280;59039;52.108;19.942;2023-03-04T07:32:46;100094.75;;;1.78;77.61
60920;BME280;59039;52.108;19.942;2023-03-04T07:35:21;100096.80;;;1.80;77.59
60920;BME280;59039;52.108;19.942;2023-03-04T07:37:46;100096.13;;;1.79;77.31
60920;BME280;59039;52.108;19.942;2023-03-04T07:40:12;100091.08;;;1.83;77.60
60920;BME280;59039;52.108;19.942;2023-03-04T07:42:38;100085.75;;;1.84;77.61
60920;BME280;59039;52.108;19.942;2023-03-04T07:45:04;100087.02;;;1.87;77.72
60920;BME280;59039;52.108;19.942;2023-03-04T07:47:30;100089.19;;;1.86;77.45
60920;BME280;59039;52.108;19.942;2023-03-04T07:49:59;100088.94;;;1.87;77.54
60920;BME280;59039;52.108;19.942;2023-03-04T07:52:24;100087.16;;;1.90;77.43
60920;BME280;59039;52.108;19.942;2023-03-04T07:54:50;100078.81;;;1.92;77.34
60920;BME280;59039;52.108;19.942;2023-03-04T07:57:17;100076.84;;;1.94;77.26
60920;BME280;59039;52.108;19.942;2023-03-04T07:59:43;100067.38;;;1.97;77.46
60920;BME280;59039;52.108;19.942;2023-03-04T08:02:09;100070.16;;;1.98;77.50
60920;BME280;59039;52.108;19.942;2023-03-04T08:04:35;100064.11;;;2.00;77.42
60920;BME280;59039;52.108;19.942;2023-03-04T08:07:00;100062.71;;;2.02;77.59
60920;BME280;59039;52.108;19.942;2023-03-04T08:09:26;100057.83;;;2.03;77.46
60920;BME280;59039;52.108;19.942;2023-03-04T08:11:51;100058.77;;;2.05;77.48
60920;BME280;59039;52.108;19.942;2023-03-04T08:17:02;100060.14;;;2.08;77.36
60920;BME280;59039;52.108;19.942;2023-03-04T08:19:28;100060.59;;;2.09;77.33
60920;BME280;59039;52.108;19.942;2023-03-04T08:22:02;100057.17;;;2.12;77.30
60920;BME280;59039;52.108;19.942;2023-03-04T08:24:30;100058.13;;;2.11;77.21
60920;BME280;59039;52.108;19.942;2023-03-04T08:26:59;100061.05;;;2.13;77.27
60920;BME280;59039;52.108;19.942;2023-03-04T08:29:25;100060.73;;;2.15;77.24
60920;BME280;59039;52.108;19.942;2023-03-04T08:31:53;100057.23;;;2.19;77.26
60920;BME280;59039;52.108;19.942;2023-03-04T08:34:23;100053.18;;;2.21;77.11
60920;BME280;59039;52.108;19.942;2023-03-04T08:36:56;100048.20;;;2.23;77.19
60920;BME280;59039;52.108;19.942;2023-03-04T08:39:21;100047.39;;;2.24;77.19
60920;BME280;59039;52.108;19.942;2023-03-04T08:41:47;100047.17;;;2.24;77.12
60920;BME280;59039;52.108;19.942;2023-03-04T08:44:13;100043.45;;;2.26;77.08
60920;BME280;59039;52.108;19.942;2023-03-04T08:46:40;100040.89;;;2.27;77.03
60920;BME280;59039;52.108;19.942;2023-03-04T08:49:14;100039.36;;;2.29;76.98
60920;BME280;59039;52.108;19.942;2023-03-04T08:51:40;100040.56;;;2.32;77.06
60920;BME280;59039;52.108;19.942;2023-03-04T08:54:07;100035.11;;;2.33;77.08
60920;BME280;59039;52.108;19.942;2023-03-04T08:56:33;100032.77;;;2.36;77.06
60920;BME280;59039;52.108;19.942;2023-03-04T08:59:02;100034.70;;;2.37;77.04
60920;BME280;59039;52.108;19.942;2023-03-04T09:01:27;100034.08;;;2.38;77.02
60920;BME280;59039;52.108;19.942;2023-03-04T09:03:53;100033.42;;;2.39;77.00
60920;BME280;59039;52.108;19.942;2023-03-04T09:06:21;100032.20;;;2.41;76.97
60920;BME280;59039;52.108;19.942;2023-03-04T09:08:47;100026.62;;;2.42;76.97
60920;BME280;59039;52.108;19.942;2023-03-04T09:11:32;100031.35;;;2.43;77.02
60920;BME280;59039;52.108;19.942;2023-03-04T09:14:05;100027.73;;;2.46;77.02
60920;BME280;59039;52.108;19.942;2023-03-04T09:16:30;100026.85;;;2.48;77.02
60920;BME280;59039;52.108;19.942;2023-03-04T09:18:56;100026.27;;;2.51;77.17
60920;BME280;59039;52.108;19.942;2023-03-04T09:21:24;100022.84;;;2.54;76.97
60920;BME280;59039;52.108;19.942;2023-03-04T09:23:52;100019.61;;;2.57;76.90
60920;BME280;59039;52.108;19.942;2023-03-04T09:26:22;100014.95;;;2.59;77.04
60920;BME280;59039;52.108;19.942;2023-03-04T09:28:53;100014.37;;;2.62;76.94
60920;BME280;59039;52.108;19.942;2023-03-04T09:31:20;100004.17;;;2.67;76.91
60920;BME280;59039;52.108;19.942;2023-03-04T09:33:45;100003.25;;;2.72;76.85
60920;BME280;59039;52.108;19.942;2023-03-04T09:36:12;100000.58;;;2.77;76.78
60920;BME280;59039;52.108;19.942;2023-03-04T09:38:38;99997.26;;;2.83;76.59
60920;BME280;59039;52.108;19.942;2023-03-04T09:41:07;99993.91;;;2.87;76.56
60920;BME280;59039;52.108;19.942;2023-03-04T09:43:43;99990.20;;;2.91;76.60
60920;BME280;59039;52.108;19.942;2023-03-04T09:46:15;99985.77;;;2.95;76.49
60920;BME280;59039;52.108;19.942;2023-03-04T09:48:51;99986.91;;;2.99;76.57
60920;BME280;59039;52.108;19.942;2023-03-04T09:51:22;99988.35;;;3.02;76.18
60920;BME280;59039;52.108;19.942;2023-03-04T09:54:02;99989.90;;;3.04;76.39
60920;BME280;59039;52.108;19.942;2023-03-04T09:56:38;99986.36;;;3.09;76.45
60920;BME280;59039;52.108;19.942;2023-03-04T10:02:01;99982.16;;;3.14;75.81
60920;BME280;59039;52.108;19.942;2023-03-04T10:05:00;99978.34;;;3.18;75.96
60920;BME280;59039;52.108;19.942;2023-03-04T10:07:35;99974.23;;;3.20;75.55
60920;BME280;59039;52.108;19.942;2023-03-04T10:10:21;99975.20;;;3.21;75.80
60920;BME280;59039;52.108;19.942;2023-03-04T10:12:57;99970.18;;;3.24;75.76
60920;BME280;59039;52.108;19.942;2023-03-04T10:15:50;99965.52;;;3.26;75.93
60920;BME280;59039;52.108;19.942;2023-03-04T10:20:57;99956.92;;;3.30;75.69
60920;BME280;59039;52.108;19.942;2023-03-04T10:23:45;99952.84;;;3.30;75.52
60920;BME280;59039;52.108;19.942;2023-03-04T10:26:16;99943.44;;;3.34;75.93
60920;BME280;59039;52.108;19.942;2023-03-04T10:28:52;99939.64;;;3.37;75.86
60920;BME280;59039;52.108;19.942;2023-03-04T10:31:31;99931.64;;;3.40;75.93
60920;BME280;59039;52.108;19.942;2023-03-04T10:33:57;99932.58;;;3.44;75.74
60920;BME280;59039;52.108;19.942;2023-03-04T10:36:55;99932.08;;;3.46;75.75
60920;BME280;59039;52.108;19.942;2023-03-04T10:39:32;99939.02;;;3.49;75.41
60920;BME280;59039;52.108;19.942;2023-03-04T10:42:22;99937.37;;;3.51;75.58
60920;BME280;59039;52.108;19.942;2023-03-04T10:44:59;99933.02;;;3.54;75.51
60920;BME280;59039;52.108;19.942;2023-03-04T10:47:29;99929.19;;;3.58;75.43
60920;BME280;59039;52.108;19.942;2023-03-04T10:50:03;99927.96;;;3.60;75.31
60920;BME280;59039;52.108;19.942;2023-03-04T10:52:38;99928.88;;;3.62;75.53
60920;BME280;59039;52.108;19.942;2023-03-04T10:55:17;99928.27;;;3.65;75.32
60920;BME280;59039;52.108;19.942;2023-03-04T10:57:47;99919.52;;;3.67;75.27
60920;BME280;59039;52.108;19.942;2023-03-04T11:02:42;99914.20;;;3.70;75.50
60920;BME280;59039;52.108;19.942;2023-03-04T11:05:24;99914.58;;;3.72;75.42
60920;BME280;59039;52.108;19.942;2023-03-04T11:07:53;99909.56;;;3.74;75.29
60920;BME280;59039;52.108;19.942;2023-03-04T11:10:21;99912.81;;;3.76;75.40
60920;BME280;59039;52.108;19.942;2023-03-04T11:12:54;99911.02;;;3.79;75.37
60920;BME280;59039;52.108;19.942;2023-03-04T11:15:22;99912.67;;;3.81;75.42
60920;BME280;59039;52.108;19.942;2023-03-04T11:17:55;99905.13;;;3.83;75.10
60920;BME280;59039;52.108;19.942;2023-03-04T11:20:49;99905.63;;;3.83;75.24
60920;BME280;59039;52.108;19.942;2023-03-04T11:26:12;99899.20;;;3.87;75.35
60920;BME280;59039;52.108;19.942;2023-03-04T11:28:57;99901.20;;;3.89;75.50
60920;BME280;59039;52.108;19.942;2023-03-04T11:31:33;99897.73;;;3.90;75.45
60920;BME280;59039;52.108;19.942;2023-03-04T11:34:11;99902.45;;;3.91;75.36
60920;BME280;59039;52.108;19.942;2023-03-04T11:37:00;99896.30;;;3.94;75.49
60920;BME280;59039;52.108;19.942;2023-03-04T11:39:34;99888.70;;;3.97;75.39
60920;BME280;59039;52.108;19.942;2023-03-04T11:42:20;99887.74;;;4.01;75.53
60920;BME280;59039;52.108;19.942;2023-03-04T11:44:51;99889.14;;;4.01;75.44
60920;BME280;59039;52.108;19.942;2023-03-04T11:50:21;99886.67;;;4.05;75.32
60920;BME280;59039;52.108;19.942;2023-03-04T11:55:44;99876.16;;;4.06;75.51
60920;BME280;59039;52.108;19.942;2023-03-04T12:01:09;99875.45;;;4.06;75.98
60920;BME280;59039;52.108;19.942;2023-03-04T12:15:34;99858.81;;;3.99;78.07
60920;BME280;59039;52.108;19.942;2023-03-04T12:19:05;99852.01;;;4.01;77.49
60920;BME280;59039;52.108;19.942;2023-03-04T12:30:29;99838.52;;;4.08;78.20
60920;BME280;59039;52.108;19.942;2023-03-04T12:39:11;99830.83;;;4.16;77.39
60920;BME280;59039;52.108;19.942;2023-03-04T12:41:58;99830.16;;;4.20;77.29
60920;BME280;59039;52.108;19.942;2023-03-04T12:44:30;99832.80;;;4.23;77.17
60920;BME280;59039;52.108;19.942;2023-03-04T12:52:42;99825.28;;;4.34;77.10
60920;BME280;59039;52.108;19.942;2023-03-04T12:55:11;99827.30;;;4.35;77.20
60920;BME280;59039;52.108;19.942;2023-03-04T12:57:39;99823.25;;;4.38;77.27
60920;BME280;59039;52.108;19.942;2023-03-04T13:00:50;99824.52;;;4.43;77.11
60920;BME280;59039;52.108;19.942;2023-03-04T13:14:15;99904.64;;;3.89;76.28
60920;BME280;59039;52.108;19.942;2023-03-04T13:16:55;99894.96;;;3.76;76.62
60920;BME280;59039;52.108;19.942;2023-03-04T13:19:55;99891.59;;;3.64;76.85
60920;BME280;59039;52.108;19.942;2023-03-04T13:23:00;99882.36;;;3.52;77.14
60920;BME280;59039;52.108;19.942;2023-03-04T13:25:46;99888.52;;;3.37;77.30
60920;BME280;59039;52.108;19.942;2023-03-04T13:28:20;99890.98;;;3.18;77.26
60920;BME280;59039;52.108;19.942;2023-03-04T13:43:58;99884.92;;;2.80;78.95
60920;BME280;59039;52.108;19.942;2023-03-04T13:56:47;99887.84;;;2.75;78.63
60920;BME280;59039;52.108;19.942;2023-03-04T14:01:51;99893.59;;;2.79;78.38
60920;BME280;59039;52.108;19.942;2023-03-04T14:04:30;99891.46;;;2.81;78.67
60920;BME280;59039;52.108;19.942;2023-03-04T14:07:00;99886.04;;;2.82;78.46
60920;BME280;59039;52.108;19.942;2023-03-04T14:09:27;99882.63;;;2.84;78.45
60920;BME280;59039;52.108;19.942;2023-03-04T14:11:58;99878.94;;;2.88;78.52
60920;BME280;59039;52.108;19.942;2023-03-04T14:14:28;99875.88;;;2.91;78.66
60920;BME280;59039;52.108;19.942;2023-03-04T14:17:03;99880.08;;;2.92;78.34
60920;BME280;59039;52.108;19.942;2023-03-04T14:19:31;99876.06;;;2.93;78.37
60920;BME280;59039;52.108;19.942;2023-03-04T14:21:58;99881.20;;;2.96;78.55
60920;BME280;59039;52.108;19.942;2023-03-04T14:24:24;99881.94;;;2.98;78.57
60920;BME280;59039;52.108;19.942;2023-03-04T14:27:03;99874.85;;;3.02;78.56
60920;BME280;59039;52.108;19.942;2023-03-04T14:29:30;99872.57;;;3.06;78.82
60920;BME280;59039;52.108;19.942;2023-03-04T14:31:57;99871.49;;;3.08;78.86
60920;BME280;59039;52.108;19.942;2023-03-04T14:34:35;99870.15;;;3.12;78.88
60920;BME280;59039;52.108;19.942;2023-03-04T14:37:03;99872.21;;;3.15;78.93
60920;BME280;59039;52.108;19.942;2023-03-04T14:39:41;99864.64;;;3.18;78.89
60920;BME280;59039;52.108;19.942;2023-03-04T14:42:15;99861.88;;;3.21;78.62
60920;BME280;59039;52.108;19.942;2023-03-04T14:44:47;99866.20;;;3.25;78.49
60920;BME280;59039;52.108;19.942;2023-03-04T14:47:19;99868.98;;;3.28;78.41
60920;BME280;59039;52.108;19.942;2023-03-04T14:49:47;99870.98;;;3.28;78.35
60920;BME280;59039;52.108;19.942;2023-03-04T14:52:38;99873.25;;;3.29;78.32